.
WxDataArchive / Data Records for 2007-10-16
2007-10-15 October 2007 2007-10-17

Data Records for Tuesday, 16 October 2007

Time	Temp	Chill	HIndex	Humid	Dewpt	 Wind 	HiWind	WindDir	Rain 	Barom 
-----	----	-----	------	-----	-----	------	------	-------	-----	----- 
00:00	65.0	65.0	65.0	58	49.9	0	1	90	0.00	29.904 
00:05	65.0	65.0	65.0	59	50.3	0	1	90	0.00	29.899 
00:10	65.0	65.0	65.0	59	50.3	0	2	90	0.00	29.899 
00:15	64.8	64.8	64.8	59	50.1	1	3	90	0.00	29.899 
00:20	64.7	64.7	64.7	60	50.5	0	1	90	0.00	29.899 
00:25	64.3	64.3	64.3	61	50.6	0	1	90	0.00	29.899 
00:30	64.2	64.2	64.2	61	50.5	1	3	90	0.00	29.899 
00:35	64.0	64.0	64.0	62	50.7	1	2	90	0.00	29.899 
00:40	63.9	63.9	63.9	62	50.6	1	3	90	0.00	29.899 
00:45	63.7	63.7	63.7	62	50.4	1	3	90	0.00	29.900 
00:50	63.4	63.4	63.4	64	51.0	0	3	90	0.00	29.900 
00:55	63.1	63.1	63.1	65	51.1	0	2	90	0.00	29.900 
01:00	62.7	62.7	62.7	65	50.8	0	1	90	0.00	29.902 
01:05	62.6	62.6	62.6	65	50.7	1	2	90	0.00	29.902 
01:10	62.6	62.6	62.6	65	50.7	0	1	90	0.00	29.901 
01:15	62.4	62.4	62.4	65	50.5	0	1	90	0.00	29.901 
01:20	62.4	62.4	62.4	65	50.5	0	2	90	0.00	29.900 
01:25	62.6	62.6	62.6	65	50.7	0	1	90	0.00	29.901 
01:30	62.6	62.6	62.6	65	50.7	0	2	90	0.00	29.900 
01:35	62.7	62.7	62.7	65	50.8	0	1	90	0.00	29.899 
01:40	62.6	62.6	62.6	65	50.7	0	1	90	0.00	29.895 
01:45	62.6	62.6	62.6	65	50.7	0	2	90	0.00	29.890 
01:50	62.4	62.4	62.4	66	50.9	0	1	90	0.00	29.888 
01:55	62.1	62.1	62.1	67	51.0	0	1	90	0.00	29.888 
02:00	61.8	61.8	61.8	68	51.1	0	1	90	0.00	29.886 
02:05	61.5	61.5	61.5	68	50.8	0	1	90	0.00	29.886 
02:10	61.3	61.3	61.3	69	51.0	0	2	90	0.00	29.887 
02:15	61.2	61.2	61.2	69	50.9	1	2	90	0.00	29.887 
02:20	61.2	61.2	61.2	69	50.9	0	2	90	0.00	29.886 
02:25	61.2	61.2	61.2	69	50.9	1	2	90	0.00	29.886 
02:30	61.0	61.0	61.0	69	50.8	1	3	90	0.00	29.885 
02:35	61.0	61.0	61.0	69	50.8	1	3	90	0.00	29.886 
02:40	61.0	61.0	61.0	69	50.8	1	2	90	0.00	29.886 
02:45	60.9	60.9	60.9	69	50.7	1	2	90	0.00	29.886 
02:50	60.9	60.9	60.9	69	50.7	1	3	90	0.00	29.886 
02:55	60.9	60.9	60.9	69	50.7	1	2	90	0.00	29.886 
03:00	60.9	60.9	60.9	69	50.7	1	2	90	0.00	29.885 
03:05	60.9	60.9	60.9	69	50.7	1	3	90	0.00	29.884 
03:10	60.9	60.9	60.9	69	50.7	1	3	90	0.00	29.881 
03:15	60.9	60.9	60.9	69	50.7	0	2	90	0.00	29.884 
03:20	60.9	60.9	60.9	70	51.0	0	1	90	0.00	29.884 
03:25	61.0	61.0	61.0	69	50.8	1	2	90	0.00	29.882 
03:30	61.0	61.0	61.0	69	50.8	0	2	90	0.00	29.877 
03:35	61.0	61.0	61.0	69	50.8	0	1	90	0.00	29.876 
03:40	61.0	61.0	61.0	69	50.8	0	2	90	0.00	29.873 
03:45	61.0	61.0	61.0	70	51.1	0	1	90	0.00	29.871 
03:50	60.9	60.9	60.9	70	51.0	0	0	---	0.00	29.873 
03:55	60.7	60.7	60.7	71	51.2	0	0	---	0.00	29.875 
04:00	60.7	60.7	60.7	71	51.2	0	1	90	0.00	29.873 
04:05	60.5	60.5	60.5	71	51.0	0	1	90	0.00	29.874 
04:10	60.5	60.5	60.5	71	51.0	0	0	---	0.00	29.884 
04:15	60.5	60.5	60.5	74	52.2	0	0	---	0.01	29.887 
04:20	60.4	60.4	60.4	77	53.2	0	1	90	0.00	29.886 
04:25	59.9	59.9	59.9	78	53.0	0	1	90	0.00	29.883 
04:30	59.6	59.6	59.6	80	53.4	0	1	90	0.00	29.878 
04:35	59.3	59.3	59.3	80	53.1	0	1	90	0.00	29.875 
04:40	59.3	59.3	59.3	81	53.5	0	1	90	0.00	29.877 
04:45	59.3	59.3	59.3	82	53.8	0	0	---	0.00	29.875 
04:50	59.3	59.3	59.3	82	53.8	0	1	90	0.00	29.874 
04:55	59.5	59.5	59.5	81	53.7	0	1	90	0.00	29.874 
05:00	59.5	59.5	59.5	81	53.7	0	0	---	0.00	29.874 
05:05	59.5	59.5	59.5	83	54.3	0	0	---	0.00	29.879 
05:10	59.5	59.5	59.5	84	54.7	0	0	---	0.00	29.880 
05:15	59.3	59.3	59.3	84	54.5	0	0	---	0.00	29.886 
05:20	59.2	59.2	59.2	86	55.0	0	0	---	0.00	29.884 
05:25	59.2	59.2	59.2	86	55.0	0	1	90	0.00	29.882 
05:30	59.2	59.2	59.2	84	54.4	0	1	90	0.00	29.883 
05:35	59.3	59.3	59.3	83	54.1	0	0	---	0.00	29.881 
05:40	59.6	59.6	59.6	82	54.1	0	1	90	0.00	29.877 
05:45	59.8	59.8	59.8	82	54.3	0	0	---	0.00	29.878 
05:50	59.9	59.9	59.9	82	54.4	0	0	---	0.00	29.881 
05:55	59.9	59.9	59.9	82	54.4	0	0	---	0.00	29.879 
06:00	59.9	59.9	59.9	81	54.1	0	1	90	0.00	29.878 
06:05	60.2	60.2	60.2	80	54.0	0	1	90	0.00	29.882 
06:10	60.2	60.2	60.2	81	54.3	0	0	---	0.00	29.882 
06:15	60.4	60.4	60.4	80	54.2	0	0	---	0.00	29.882 
06:20	60.4	60.4	60.4	79	53.9	0	1	90	0.00	29.885 
06:25	60.5	60.5	60.5	78	53.6	0	1	90	0.00	29.885 
06:30	60.9	60.9	60.9	77	53.6	0	1	90	0.00	29.882 
06:35	61.3	61.3	61.3	76	53.7	0	1	90	0.00	29.880 
06:40	61.5	61.5	61.5	76	53.9	0	0	---	0.00	29.879 
06:45	61.5	61.5	61.5	76	53.9	0	0	---	0.00	29.879 
06:50	61.5	61.5	61.5	76	53.9	0	1	90	0.00	29.878 
06:55	61.6	61.6	61.6	76	54.0	0	1	90	0.00	29.881 
07:00	61.5	61.5	61.5	77	54.2	0	1	90	0.00	29.880 
07:05	61.5	61.5	61.5	77	54.2	0	1	90	0.00	29.884 
07:10	61.5	61.5	61.5	77	54.2	0	1	90	0.00	29.884 
07:15	61.5	61.5	61.5	77	54.2	0	1	90	0.00	29.883 
07:20	61.5	61.5	61.5	77	54.2	0	1	90	0.00	29.884 
07:25	61.5	61.5	61.5	77	54.2	0	1	90	0.00	29.885 
07:30	61.5	61.5	61.5	77	54.2	0	1	90	0.00	29.891 
07:35	61.3	61.3	61.3	78	54.4	0	0	---	0.00	29.892 
07:40	61.3	61.3	61.3	79	54.7	0	1	90	0.00	29.894 
07:45	61.2	61.2	61.2	79	54.6	0	1	90	0.00	29.895 
07:50	61.2	61.2	61.2	79	54.6	0	1	90	0.00	29.895 
07:55	61.2	61.2	61.2	78	54.3	0	1	90	0.00	29.897 
08:00	61.2	61.2	61.2	79	54.6	0	1	90	0.01	29.899 
08:05	61.2	61.2	61.2	80	55.0	0	0	---	0.00	29.897 
08:10	61.2	61.2	61.2	80	55.0	0	1	90	0.00	29.900 
08:15	61.2	61.2	61.2	80	55.0	0	1	90	0.00	29.900 
08:20	61.2	61.2	61.2	80	55.0	0	3	90	0.00	29.902 
08:25	61.3	61.3	61.3	81	55.4	0	2	90	0.00	29.902 
08:30	61.5	61.5	61.5	81	55.6	0	2	90	0.00	29.903 
08:35	61.5	61.5	61.5	81	55.6	0	2	90	0.00	29.902 
08:40	61.3	61.3	61.3	82	55.8	0	4	135	0.01	29.906 
08:45	61.3	61.3	61.3	84	56.4	1	4	90	0.00	29.907 
08:50	61.0	61.0	61.0	85	56.5	0	3	90	0.01	29.906 
08:55	60.9	60.9	60.9	86	56.7	0	1	90	0.01	29.905 
09:00	60.7	60.7	60.7	87	56.8	0	1	90	0.00	29.908 
09:05	60.5	60.5	60.5	88	56.9	0	2	90	0.01	29.908 
09:10	60.4	60.4	60.4	89	57.1	0	2	90	0.00	29.906 
09:15	60.4	60.4	60.4	90	57.4	0	1	90	0.02	29.906 
09:20	60.2	60.2	60.2	91	57.6	0	1	90	0.01	29.907 
09:25	60.2	60.2	60.2	92	57.9	0	2	90	0.01	29.907 
09:30	60.1	60.1	60.1	92	57.8	0	2	90	0.02	29.905 
09:35	60.1	60.1	60.1	92	57.8	0	2	135	0.01	29.903 
09:40	60.1	60.1	60.1	93	58.1	0	2	68	0.02	29.904 
09:45	60.1	60.1	60.1	93	58.1	0	1	68	0.00	29.903 
09:50	60.1	60.1	60.1	94	58.4	1	4	112	0.02	29.901 
09:55	60.2	60.2	60.2	94	58.5	0	2	135	0.00	29.902 
10:00	60.2	60.2	60.2	95	58.8	1	2	135	0.01	29.906 
10:05	60.4	60.4	60.4	95	59.0	0	2	112	0.01	29.908 
10:10	60.2	60.2	60.2	95	58.8	1	5	112	0.01	29.907 
10:15	60.2	60.2	60.2	95	58.8	1	3	90	0.00	29.909 
10:20	60.2	60.2	60.2	95	58.8	1	4	135	0.00	29.906 
10:25	60.2	60.2	60.2	95	58.8	1	3	90	0.00	29.904 
10:30	60.4	60.4	60.4	95	59.0	0	2	90	0.00	29.904 
10:35	60.4	60.4	60.4	95	59.0	0	2	90	0.00	29.903 
10:40	60.5	60.5	60.5	95	59.1	0	3	90	0.00	29.901 
10:45	60.7	60.7	60.7	95	59.3	1	5	90	0.00	29.900 
10:50	60.9	60.9	60.9	96	59.7	0	2	90	0.00	29.903 
10:55	60.9	60.9	60.9	96	59.7	0	4	90	0.00	29.902 
11:00	61.0	61.0	61.0	95	59.6	0	2	90	0.00	29.901 
11:05	61.0	61.0	61.0	95	59.6	0	2	90	0.00	29.899 
11:10	61.0	61.0	61.0	95	59.6	1	3	90	0.00	29.898 
11:15	61.2	61.2	61.2	96	60.0	0	2	112	0.00	29.897 
11:20	61.2	61.2	61.2	96	60.0	1	3	112	0.00	29.897 
11:25	61.2	61.2	61.2	96	60.0	0	3	112	0.00	29.897 
11:30	61.2	61.2	61.2	96	60.0	0	2	112	0.00	29.897 
11:35	61.2	61.2	61.2	96	60.0	1	5	112	0.00	29.895 
11:40	61.3	61.3	61.3	96	60.1	1	2	112	0.00	29.896 
11:45	61.3	61.3	61.3	96	60.1	1	4	135	0.00	29.895 
11:50	61.5	61.5	61.5	96	60.3	0	3	112	0.00	29.896 
11:55	61.5	61.5	61.5	95	60.1	1	3	112	0.00	29.895 
12:00	61.5	61.5	61.5	95	60.1	0	2	90	0.00	29.895 
12:05	61.6	61.6	61.6	96	60.4	0	2	90	0.00	29.894 
12:10	61.8	61.8	61.8	96	60.6	1	3	90	0.00	29.893 
12:15	61.8	61.8	61.8	95	60.3	1	3	68	0.00	29.892 
12:20	62.0	62.0	62.0	95	60.5	1	3	112	0.00	29.888 
12:25	62.1	62.1	62.1	95	60.6	1	3	112	0.00	29.886 
12:30	62.4	62.4	62.4	95	60.9	1	3	112	0.00	29.887 
12:35	62.7	62.7	62.7	95	61.2	1	3	135	0.00	29.883 
12:40	63.1	63.1	63.1	95	61.6	1	4	22	0.00	29.880 
12:45	63.2	63.2	63.2	94	61.4	1	3	22	0.00	29.881 
12:50	63.4	63.4	63.4	94	61.6	1	3	90	0.00	29.883 
12:55	63.4	63.4	63.4	93	61.3	1	5	248	0.00	29.883 
13:00	63.4	63.4	63.4	93	61.3	1	5	248	0.00	29.882 
13:05	63.9	63.9	63.9	93	61.8	0	2	270	0.00	29.880 
13:10	64.5	64.5	64.5	93	62.4	0	2	248	0.00	29.879 
13:15	64.5	64.5	64.5	92	62.1	1	5	270	0.00	29.879 
13:20	64.7	64.7	64.7	91	62.0	1	3	248	0.00	29.878 
13:25	65.0	65.0	65.0	91	62.3	1	3	248	0.00	29.878 
13:30	65.2	65.2	65.2	90	62.2	0	1	270	0.00	29.876 
13:35	65.0	65.0	65.0	89	61.7	1	4	248	0.00	29.875 
13:40	65.0	65.0	65.0	88	61.4	1	4	248	0.00	29.873 
13:45	65.2	65.2	65.2	88	61.6	1	3	248	0.00	29.871 
13:50	65.2	65.2	65.2	88	61.6	0	3	248	0.00	29.868 
13:55	65.3	65.3	65.3	88	61.6	0	2	248	0.00	29.866 
14:00	65.6	65.6	65.6	88	61.9	0	3	0	0.00	29.863 
14:05	65.8	65.8	65.8	87	61.8	1	3	0	0.00	29.863 
14:10	66.1	66.1	66.1	86	61.8	0	2	248	0.00	29.863 
14:15	66.3	66.3	66.3	86	62.0	0	2	248	0.00	29.862 
14:20	66.4	66.4	66.4	85	61.7	0	2	248	0.00	29.861 
14:25	66.4	66.4	66.4	85	61.7	1	3	248	0.00	29.861 
14:30	67.1	67.1	67.1	86	62.8	1	2	248	0.00	29.858 
14:35	67.4	67.4	67.4	82	61.7	1	6	248	0.00	29.859 
14:40	67.6	67.6	67.6	81	61.6	1	3	248	0.00	29.859 
14:45	68.3	68.3	68.3	79	61.5	1	3	248	0.00	29.858 
14:50	68.6	68.6	68.6	75	60.3	2	6	270	0.00	29.858 
14:55	69.1	69.1	69.1	73	60.1	2	7	248	0.00	29.856 
15:00	69.6	69.6	69.6	71	59.8	2	4	270	0.00	29.854 
15:05	69.6	69.6	69.6	73	60.6	1	6	270	0.00	29.856 
15:10	69.8	69.8	69.8	72	60.4	1	4	270	0.00	29.857 
15:15	69.6	69.6	69.6	71	59.8	2	6	248	0.00	29.857 
15:20	69.1	69.1	69.1	72	59.7	1	3	248	0.00	29.858 
15:25	68.9	68.9	68.9	73	59.9	1	4	248	0.00	29.858 
15:30	68.8	68.8	68.8	72	59.4	1	3	248	0.00	29.858 
15:35	68.6	68.6	68.6	73	59.6	0	2	270	0.00	29.858 
15:40	68.4	68.4	68.4	71	58.6	1	3	270	0.00	29.859 
15:45	68.8	68.8	68.8	70	58.6	1	5	270	0.00	29.858 
15:50	69.3	69.3	69.3	69	58.7	2	4	248	0.00	29.858 
15:55	69.3	69.3	69.3	68	58.3	2	6	270	0.00	29.858 
16:00	69.4	69.4	69.4	68	58.4	2	6	248	0.00	29.859 
16:05	69.4	69.4	69.4	68	58.4	1	4	248	0.00	29.861 
16:10	69.4	69.4	69.4	69	58.8	0	2	270	0.00	29.860 
16:15	69.4	69.4	69.4	69	58.8	0	2	248	0.00	29.861 
16:20	69.1	69.1	69.1	69	58.5	1	3	248	0.00	29.862 
16:25	68.8	68.8	68.8	70	58.6	0	2	270	0.00	29.862 
16:30	68.6	68.6	68.6	70	58.4	1	4	248	0.00	29.862 
16:35	68.4	68.4	68.4	71	58.6	0	3	270	0.00	29.863 
16:40	68.3	68.3	68.3	71	58.5	0	2	270	0.00	29.864 
16:45	68.4	68.4	68.4	70	58.2	1	2	270	0.00	29.864 
16:50	68.4	68.4	68.4	70	58.2	1	3	248	0.00	29.864 
16:55	68.4	68.4	68.4	69	57.8	0	3	248	0.00	29.866 
17:00	68.4	68.4	68.4	69	57.8	0	2	248	0.00	29.870 
17:05	68.4	68.4	68.4	68	57.4	0	3	248	0.00	29.873 
17:10	68.3	68.3	68.3	68	57.3	0	1	248	0.00	29.873 
17:15	68.1	68.1	68.1	68	57.1	0	3	270	0.00	29.875 
17:20	67.8	67.8	67.8	69	57.2	0	1	270	0.00	29.876 
17:25	67.6	67.6	67.6	69	57.1	0	1	270	0.00	29.877 
17:30	67.4	67.4	67.4	70	57.3	0	0	---	0.00	29.880 
17:35	67.1	67.1	67.1	71	57.4	0	0	---	0.00	29.880 
17:40	66.9	66.9	66.9	71	57.2	0	1	270	0.00	29.881 
17:45	66.9	66.9	66.9	72	57.6	0	2	270	0.00	29.880 
17:50	66.6	66.6	66.6	73	57.7	0	0	---	0.00	29.880 
17:55	66.4	66.4	66.4	73	57.5	0	1	270	0.00	29.882 
18:00	66.1	66.1	66.1	74	57.6	0	0	---	0.00	29.885 
18:05	66.0	66.0	66.0	75	57.8	0	0	---	0.00	29.887 
18:10	65.6	65.6	65.6	76	57.8	0	0	---	0.00	29.887 
18:15	65.5	65.5	65.5	76	57.7	0	0	---	0.00	29.886 
18:20	65.3	65.3	65.3	77	57.9	0	0	---	0.00	29.884 
18:25	65.2	65.2	65.2	77	57.8	0	0	---	0.00	29.888 
18:30	65.0	65.0	65.0	79	58.3	0	0	---	0.00	29.888 
18:35	64.7	64.7	64.7	80	58.4	0	0	---	0.00	29.888 
18:40	64.3	64.3	64.3	80	58.0	0	0	---	0.00	29.889 
18:45	64.0	64.0	64.0	81	58.0	0	0	---	0.00	29.886 
18:50	63.4	63.4	63.4	83	58.1	0	0	---	0.00	29.883 
18:55	62.7	62.7	62.7	85	58.1	0	1	270	0.00	29.884 
19:00	62.4	62.4	62.4	86	58.2	0	0	---	0.00	29.884 
19:05	62.3	62.3	62.3	86	58.1	0	0	---	0.00	29.885 
19:10	62.1	62.1	62.1	86	57.9	0	0	---	0.00	29.888 
19:15	61.8	61.8	61.8	87	57.9	0	0	---	0.00	29.892 
19:20	61.6	61.6	61.6	88	58.0	0	0	---	0.00	29.894 
19:25	61.6	61.6	61.6	88	58.0	0	0	---	0.00	29.892 
19:30	61.8	61.8	61.8	89	58.5	0	0	---	0.00	29.895 
19:35	61.8	61.8	61.8	89	58.5	0	0	---	0.00	29.895 
19:40	61.8	61.8	61.8	89	58.5	0	0	---	0.00	29.896 
19:45	61.6	61.6	61.6	89	58.3	0	0	---	0.00	29.896 
19:50	61.6	61.6	61.6	89	58.3	0	0	---	0.00	29.896 
19:55	61.6	61.6	61.6	90	58.6	0	0	---	0.00	29.897 
20:00	61.8	61.8	61.8	90	58.8	0	0	---	0.00	29.897 
20:05	61.8	61.8	61.8	90	58.8	0	0	---	0.00	29.898 
20:10	61.6	61.6	61.6	91	58.9	0	0	---	0.00	29.898 
20:15	61.8	61.8	61.8	91	59.1	0	0	---	0.00	29.898 
20:20	61.8	61.8	61.8	91	59.1	0	1	270	0.00	29.899 
20:25	62.0	62.0	62.0	91	59.3	0	1	270	0.00	29.900 
20:30	62.0	62.0	62.0	91	59.3	0	0	---	0.00	29.900 
20:35	61.8	61.8	61.8	92	59.4	0	1	270	0.00	29.900 
20:40	61.8	61.8	61.8	92	59.4	0	1	270	0.00	29.899 
20:45	61.6	61.6	61.6	92	59.2	0	1	270	0.00	29.898 
20:50	61.6	61.6	61.6	92	59.2	0	0	---	0.00	29.900 
20:55	61.5	61.5	61.5	92	59.2	0	0	---	0.00	29.901 
21:00	61.3	61.3	61.3	92	59.0	0	1	270	0.00	29.905 
21:05	61.2	61.2	61.2	92	58.9	0	1	270	0.00	29.909 
21:10	61.0	61.0	61.0	93	59.0	0	0	---	0.00	29.909 
21:15	60.9	60.9	60.9	93	58.9	0	0	---	0.00	29.911 
21:20	60.7	60.7	60.7	93	58.7	0	0	---	0.00	29.913 
21:25	60.7	60.7	60.7	93	58.7	0	1	270	0.00	29.914 
21:30	60.7	60.7	60.7	94	59.0	0	2	270	0.00	29.914 
21:35	60.7	60.7	60.7	94	59.0	0	0	---	0.00	29.912 
21:40	60.5	60.5	60.5	94	58.8	0	1	248	0.00	29.914 
21:45	60.7	60.7	60.7	94	59.0	0	1	248	0.00	29.910 
21:50	60.9	60.9	60.9	94	59.2	0	2	68	0.00	29.910 
21:55	60.9	60.9	60.9	94	59.2	0	2	68	0.00	29.911 
22:00	61.0	61.0	61.0	94	59.3	0	1	68	0.00	29.913 
22:05	60.9	60.9	60.9	94	59.2	0	0	---	0.00	29.912 
22:10	60.7	60.7	60.7	94	59.0	0	1	68	0.00	29.912 
22:15	60.7	60.7	60.7	94	59.0	0	0	---	0.00	29.912 
22:20	60.7	60.7	60.7	94	59.0	0	1	68	0.00	29.912 
22:25	60.9	60.9	60.9	94	59.2	0	1	68	0.00	29.912 
22:30	61.0	61.0	61.0	95	59.6	0	2	68	0.00	29.912 
22:35	61.0	61.0	61.0	94	59.3	0	1	68	0.00	29.913 
22:40	61.0	61.0	61.0	94	59.3	0	1	68	0.00	29.912 
22:45	60.9	60.9	60.9	94	59.2	0	0	---	0.00	29.912 
22:50	60.9	60.9	60.9	94	59.2	0	1	68	0.00	29.913 
22:55	60.7	60.7	60.7	94	59.0	0	0	---	0.00	29.913 
23:00	60.7	60.7	60.7	95	59.3	0	0	---	0.00	29.914 
23:05	60.5	60.5	60.5	95	59.1	0	1	68	0.00	29.915 
23:10	60.7	60.7	60.7	95	59.3	0	1	68	0.00	29.917 
23:15	60.7	60.7	60.7	95	59.3	0	1	68	0.00	29.916 
23:20	60.9	60.9	60.9	95	59.5	0	1	68	0.00	29.916 
23:25	60.9	60.9	60.9	95	59.5	0	2	68	0.00	29.914 
23:30	60.7	60.7	60.7	95	59.3	0	1	68	0.00	29.918 
23:35	60.7	60.7	60.7	95	59.3	0	1	68	0.00	29.917 
23:40	60.9	60.9	60.9	96	59.7	0	1	68	0.00	29.917 
23:45	60.9	60.9	60.9	96	59.7	0	1	68	0.00	29.917 
23:50	60.9	60.9	60.9	96	59.7	0	0	---	0.00	29.920 
23:55	60.9	60.9	60.9	96	59.7	0	1	68	0.00	29.919 

CoCoRaHS
IN-AL-39
A2 Web Hosting
Creative Commons License
GoDaddy
Look for:

loaded 2017-10-17 18:11:09 • last modified 2010-11-18 10:43:29
Privacy PolicyDisclaimer
• wx.awcolley.com is powered by PmWiki v.2002016 •
• all content (unless otherwise noted) © 2017 A W Colley